sim
Sign-in with your pilot id or email,
or register
Callsign
Passwort

Schedule Details

Flight Number: RYR9422 (1)
Departure: Pisa Galileo Galilei Airport (LIRP) at 13:45
Arrival: Fuerteventura Airport (GCFV) at 18:00
Route: Ryanair Passenger Schedule. Enter filed route here before submitting Pirep.

Weather Information
Getting current METAR information for LIRP 192245Z 11003KT CAVOK 10/08 Q1027 NOSIG
Getting current METAR information for GCFV 192230Z AUTO 35014KT 9999 FEW028 18/12 Q1018

Schedule Frequency

Route Map